Time;durP1;ratioP1;P1;durP2;ratioP2;P2;SDS_P1;SDS_P2;PMS_P1;PMS_P2;Temp;Humidity;BMP_temperature;BMP_pressure;BME280_temperature;BME280_humidity;BME280_pressure;Samples;Min_cycle;Max_cycle;Signal;HPM_P1;HPM_P2
2022/05/14 00:01:40;;;;;;;2.53;1.13;;;25.30;48.10;;;;;;5002044;28;20048;-51
2022/05/14 00:04:07;;;;;;;1.70;1.00;;;25.30;48.10;;;;;;5004246;28;20025;-52
2022/05/14 00:06:33;;;;;;;2.83;1.20;;;25.30;48.10;;;;;;5003033;28;20014;-52
2022/05/14 00:09:04;;;;;;;1.75;1.00;;;25.30;48.00;;;;;;5003464;28;20030;-51
2022/05/14 00:14:15;;;;;;;2.72;1.17;;;25.20;48.00;;;;;;5001751;28;20073;-53
2022/05/14 00:16:41;;;;;;;3.13;1.23;;;25.20;47.90;;;;;;5002492;28;20097;-53
2022/05/14 00:19:08;;;;;;;3.92;1.58;;;25.30;47.90;;;;;;5003638;28;20025;-51
2022/05/14 00:21:35;;;;;;;3.05;1.35;;;25.30;47.80;;;;;;5002536;28;20449;-52
2022/05/14 00:24:02;;;;;;;4.25;1.05;;;25.30;47.80;;;;;;5002642;28;20398;-53
2022/05/14 00:26:27;;;;;;;2.25;1.10;;;25.20;47.80;;;;;;5003180;28;20176;-53
2022/05/14 00:28:53;;;;;;;2.55;1.27;;;25.30;47.80;;;;;;5002675;28;20517;-52
2022/05/14 00:31:19;;;;;;;2.63;1.30;;;25.20;47.80;;;;;;5002854;28;20605;-53
2022/05/14 00:33:46;;;;;;;3.22;1.30;;;25.20;47.80;;;;;;5002598;28;20026;-53
2022/05/14 00:36:12;;;;;;;2.25;0.98;;;25.20;47.70;;;;;;5002462;28;20021;-52
2022/05/14 00:38:39;;;;;;;4.03;1.50;;;25.20;47.50;;;;;;5002978;28;20026;-52
2022/05/14 00:41:06;;;;;;;1.67;0.90;;;25.20;47.40;;;;;;5002263;28;20414;-50
2022/05/14 00:43:34;;;;;;;2.58;1.17;;;25.20;47.30;;;;;;5002190;28;20084;-51
2022/05/14 00:46:18;;;;;;;3.22;1.20;;;25.20;47.20;;;;;;5001459;28;20034;-52
2022/05/14 00:48:48;;;;;;;2.25;1.10;;;25.20;47.30;;;;;;5001583;28;20022;-51
2022/05/14 00:51:17;;;;;;;2.35;0.93;;;25.20;47.00;;;;;;5002518;28;20025;-51
2022/05/14 00:53:52;;;;;;;2.15;0.82;;;25.20;47.00;;;;;;5002625;28;20121;-52
2022/05/14 00:56:34;;;;;;;2.65;1.20;;;25.20;47.10;;;;;;5001203;28;20038;-52
2022/05/14 00:59:10;;;;;;;3.05;1.27;;;25.20;47.10;;;;;;5001724;28;20026;-53
2022/05/14 01:01:37;;;;;;;2.63;1.20;;;25.20;47.20;;;;;;5002840;28;20541;-52
2022/05/14 01:04:03;;;;;;;4.10;1.20;;;25.20;47.10;;;;;;5002506;28;20037;-50
2022/05/14 01:06:30;;;;;;;2.95;1.17;;;25.20;47.20;;;;;;5001727;28;20076;-52
2022/05/14 01:08:58;;;;;;;2.30;1.05;;;25.20;47.20;;;;;;5002628;28;20038;-52
2022/05/14 01:11:25;;;;;;;2.28;1.00;;;25.20;47.10;;;;;;5002468;28;20061;-52
2022/05/14 01:13:51;;;;;;;1.90;0.90;;;25.20;47.10;;;;;;5001332;28;20029;-52
2022/05/14 01:16:17;;;;;;;2.05;0.90;;;25.20;47.10;;;;;;5001691;28;20030;-52
2022/05/14 01:18:43;;;;;;;2.45;1.20;;;25.20;47.10;;;;;;5002432;28;20801;-51
2022/05/14 01:21:40;;;;;;;2.00;0.90;;;25.20;47.00;;;;;;5001958;28;20025;-51
2022/05/14 01:26:59;;;;;;;2.53;1.00;;;25.20;46.80;;;;;;5000726;28;20100;-50
2022/05/14 01:29:26;;;;;;;2.58;1.10;;;25.20;46.70;;;;;;5002136;28;20025;-50
2022/05/14 01:31:54;;;;;;;3.20;1.02;;;25.20;46.60;;;;;;5001903;28;20087;-52
2022/05/14 01:34:23;;;;;;;2.90;1.30;;;25.20;46.70;;;;;;5000584;28;20030;-51
2022/05/14 01:36:50;;;;;;;1.75;0.77;;;25.20;46.40;;;;;;5001590;28;20375;-49
2022/05/14 01:39:15;;;;;;;2.50;1.05;;;25.10;46.30;;;;;;5001863;28;20040;-51
2022/05/14 01:41:42;;;;;;;1.80;0.80;;;25.10;46.30;;;;;;5001511;28;20022;-50
2022/05/14 01:44:08;;;;;;;1.70;1.00;;;25.20;46.40;;;;;;5001758;28;21224;-52
2022/05/14 01:46:35;;;;;;;2.40;1.00;;;25.20;46.40;;;;;;5001144;28;20033;-52
2022/05/14 01:49:01;;;;;;;3.03;1.00;;;25.10;46.40;;;;;;5001766;28;20024;-52
2022/05/14 01:51:29;;;;;;;2.10;0.90;;;25.10;46.50;;;;;;5001968;28;20069;-50
2022/05/14 01:53:54;;;;;;;2.45;1.08;;;25.10;46.40;;;;;;5001959;28;20033;-51
2022/05/14 01:56:20;;;;;;;1.90;1.00;;;25.10;46.50;;;;;;5000861;28;20097;-53
2022/05/14 01:58:46;;;;;;;2.33;1.10;;;25.10;46.40;;;;;;5000755;28;20022;-52
2022/05/14 02:01:17;;;;;;;1.90;0.95;;;25.10;46.50;;;;;;5001300;28;20172;-51
2022/05/14 02:03:45;;;;;;;2.78;0.90;;;25.10;46.50;;;;;;5000421;28;20160;-51
2022/05/14 02:06:12;;;;;;;1.75;0.90;;;25.10;46.40;;;;;;5001161;28;20030;-51
2022/05/14 02:08:38;;;;;;;2.47;0.80;;;25.10;46.50;;;;;;5001676;28;20485;-52
2022/05/14 02:11:05;;;;;;;3.25;1.10;;;25.10;46.50;;;;;;5004159;28;20415;-52
2022/05/14 02:13:31;;;;;;;2.42;1.00;;;25.10;46.40;;;;;;5004670;28;20041;-50
2022/05/14 02:15:57;;;;;;;1.70;0.90;;;25.10;46.40;;;;;;5005224;28;20029;-51
2022/05/14 02:18:23;;;;;;;2.08;1.00;;;25.10;46.30;;;;;;5004129;28;20018;-53
2022/05/14 02:20:49;;;;;;;2.63;1.02;;;25.10;46.30;;;;;;5004822;28;20018;-50
2022/05/14 02:23:15;;;;;;;1.80;0.93;;;25.10;46.20;;;;;;5005257;28;20037;-52
2022/05/14 02:25:42;;;;;;;1.73;0.68;;;25.10;46.10;;;;;;5005323;28;20095;-53
2022/05/14 02:28:07;;;;;;;3.15;1.10;;;25.10;46.10;;;;;;5005427;28;20291;-51
2022/05/14 02:30:33;;;;;;;3.05;1.10;;;25.10;46.20;;;;;;5004779;28;20030;-50
2022/05/14 02:32:59;;;;;;;1.55;0.80;;;25.10;46.10;;;;;;5005550;28;20030;-52
2022/05/14 02:35:25;;;;;;;2.53;0.93;;;25.10;46.10;;;;;;5004786;28;20026;-51
2022/05/14 02:37:51;;;;;;;2.30;1.10;;;25.10;46.30;;;;;;5004823;28;20025;-51
2022/05/14 02:40:17;;;;;;;4.20;1.35;;;25.10;46.20;;;;;;5004714;28;20735;-53
2022/05/14 02:42:42;;;;;;;2.78;0.93;;;25.10;46.20;;;;;;5005346;28;20141;-53
2022/05/14 02:45:09;;;;;;;1.58;0.93;;;25.10;46.30;;;;;;5004864;28;20112;-52
2022/05/14 02:47:35;;;;;;;1.73;0.90;;;25.00;46.30;;;;;;5005014;28;20590;-52
2022/05/14 02:50:01;;;;;;;2.63;1.10;;;25.00;46.20;;;;;;5004717;28;20080;-52
2022/05/14 02:52:27;;;;;;;2.67;0.90;;;25.00;46.20;;;;;;5004648;28;20034;-51
2022/05/14 02:54:53;;;;;;;1.45;0.70;;;25.10;46.20;;;;;;5003092;28;20045;-51
2022/05/14 02:57:18;;;;;;;1.95;0.88;;;25.00;46.20;;;;;;5004262;28;20136;-52
2022/05/14 02:59:44;;;;;;;1.70;0.93;;;25.00;46.20;;;;;;5004869;28;20026;-53
2022/05/14 03:02:10;;;;;;;1.63;0.68;;;25.00;46.10;;;;;;5004198;28;20022;-52
2022/05/14 03:04:38;;;;;;;2.40;1.05;;;25.00;46.10;;;;;;5004322;28;20056;-50
2022/05/14 03:07:10;;;;;;;1.92;0.90;;;25.00;46.10;;;;;;5004464;28;20054;-52
2022/05/14 03:09:38;;;;;;;1.93;1.00;;;25.00;46.10;;;;;;5003731;28;20030;-51
2022/05/14 03:12:05;;;;;;;1.98;0.85;;;25.00;45.90;;;;;;5004816;28;20101;-52
2022/05/14 03:14:31;;;;;;;2.63;1.08;;;25.00;45.70;;;;;;5003698;28;20117;-50
2022/05/14 03:16:57;;;;;;;1.58;0.68;;;25.00;45.80;;;;;;5003872;28;20164;-52
2022/05/14 03:19:23;;;;;;;2.20;0.95;;;25.00;45.80;;;;;;5004044;28;20438;-51
2022/05/14 03:21:49;;;;;;;1.23;0.63;;;25.00;45.80;;;;;;5004171;28;20065;-51
2022/05/14 03:24:15;;;;;;;8.43;1.20;;;25.00;45.80;;;;;;5003926;28;20498;-52
2022/05/14 03:26:42;;;;;;;1.38;0.73;;;25.00;45.90;;;;;;5003820;28;20034;-51
2022/05/14 03:29:09;;;;;;;2.00;0.70;;;25.00;45.70;;;;;;5004569;28;20042;-53
2022/05/14 03:31:36;;;;;;;1.40;0.90;;;25.00;45.80;;;;;;5004182;28;20030;-50
2022/05/14 03:34:03;;;;;;;1.67;0.70;;;25.00;45.70;;;;;;5003578;28;20030;-52
2022/05/14 03:36:29;;;;;;;2.15;0.95;;;25.00;45.70;;;;;;5003278;28;20026;-52
2022/05/14 03:38:55;;;;;;;2.38;0.90;;;25.00;45.60;;;;;;5003584;28;20101;-52
2022/05/14 03:41:22;;;;;;;1.98;0.63;;;25.00;45.70;;;;;;5004455;28;20601;-52
2022/05/14 03:43:48;;;;;;;2.13;1.10;;;25.00;45.70;;;;;;5018575;28;20569;-50
2022/05/14 03:46:15;;;;;;;1.38;0.95;;;25.00;45.70;;;;;;5003734;28;20087;-52
2022/05/14 03:48:41;;;;;;;2.17;0.77;;;25.00;45.80;;;;;;5003466;28;20033;-50
2022/05/14 03:51:07;;;;;;;1.98;0.70;;;25.00;45.70;;;;;;5003944;28;20512;-51
2022/05/14 03:53:35;;;;;;;2.35;0.82;;;25.00;45.70;;;;;;5002828;28;20116;-52
2022/05/14 03:56:01;;;;;;;2.50;0.90;;;25.00;45.60;;;;;;5003153;28;20014;-52
2022/05/14 03:58:27;;;;;;;1.65;0.80;;;25.00;45.50;;;;;;5003243;28;20029;-52
2022/05/14 04:00:53;;;;;;;1.88;0.90;;;25.00;45.40;;;;;;5003725;28;20037;-50
2022/05/14 04:03:19;;;;;;;2.60;0.90;;;25.00;45.50;;;;;;5002903;28;20488;-51
2022/05/14 04:05:45;;;;;;;2.47;0.98;;;25.00;45.50;;;;;;5003030;28;20478;-52
2022/05/14 04:08:11;;;;;;;2.00;0.90;;;25.00;45.50;;;;;;5002489;28;20018;-52
2022/05/14 04:10:36;;;;;;;2.08;0.88;;;25.00;45.50;;;;;;5003837;28;20036;-52
2022/05/14 04:13:02;;;;;;;2.05;0.98;;;25.00;45.50;;;;;;5003470;28;20022;-51
2022/05/14 04:15:28;;;;;;;1.50;0.68;;;24.90;45.60;;;;;;5002741;28;20046;-52
2022/05/14 04:17:55;;;;;;;2.88;0.90;;;25.00;45.50;;;;;;5002473;28;20049;-52
2022/05/14 04:20:21;;;;;;;2.00;0.80;;;24.90;45.50;;;;;;5002593;28;20108;-53
2022/05/14 04:22:48;;;;;;;1.90;0.80;;;25.00;45.40;;;;;;5003140;28;20072;-52
2022/05/14 04:25:14;;;;;;;1.55;0.70;;;24.90;45.40;;;;;;5003004;28;20125;-51
2022/05/14 04:27:41;;;;;;;2.28;0.90;;;24.90;45.50;;;;;;5001670;28;20045;-51
2022/05/14 04:30:09;;;;;;;1.88;0.90;;;24.90;45.60;;;;;;5002843;28;20506;-52
2022/05/14 04:32:35;;;;;;;1.50;0.70;;;24.90;45.50;;;;;;5001818;28;20064;-50
2022/05/14 04:35:02;;;;;;;1.85;0.88;;;24.90;45.50;;;;;;5002710;28;20656;-52
2022/05/14 04:37:28;;;;;;;2.20;1.15;;;24.90;45.50;;;;;;5002034;28;20037;-50
2022/05/14 04:39:53;;;;;;;1.38;0.70;;;24.90;45.50;;;;;;5002357;28;20029;-52
2022/05/14 04:42:19;;;;;;;1.83;0.80;;;24.90;45.50;;;;;;5002295;28;20422;-50
2022/05/14 04:44:45;;;;;;;1.95;0.75;;;25.00;45.40;;;;;;5002342;28;20350;-51
2022/05/14 04:47:11;;;;;;;2.13;0.77;;;24.90;45.40;;;;;;5001216;28;20036;-52
2022/05/14 04:49:43;;;;;;;2.83;0.75;;;24.90;45.40;;;;;;5001701;28;20098;-52
2022/05/14 04:52:09;;;;;;;3.60;1.00;;;24.90;45.50;;;;;;5001998;28;20536;-49
2022/05/14 04:54:36;;;;;;;2.08;0.80;;;24.90;46.40;;;;;;5002309;28;20021;-49
2022/05/14 04:57:02;;;;;;;2.80;1.10;;;24.90;46.40;;;;;;5001971;28;20065;-48
2022/05/14 04:59:28;;;;;;;2.03;0.70;;;24.90;46.60;;;;;;5001858;28;20041;-47
2022/05/14 05:04:42;;;;;;;1.75;0.73;;;24.90;46.70;;;;;;5000583;28;20037;-49
2022/05/14 05:07:07;;;;;;;1.95;0.70;;;25.00;46.60;;;;;;5001737;28;20506;-47
2022/05/14 05:09:33;;;;;;;3.70;0.95;;;25.00;46.70;;;;;;5001360;28;20057;-49
2022/05/14 05:11:59;;;;;;;2.75;1.33;;;25.00;46.70;;;;;;5002242;28;20406;-49
2022/05/14 05:14:25;;;;;;;1.52;0.80;;;25.00;46.70;;;;;;5001366;28;20029;-47
2022/05/14 05:16:51;;;;;;;2.15;0.80;;;25.00;46.70;;;;;;5000683;28;20488;-49
2022/05/14 05:19:18;;;;;;;3.47;1.08;;;25.00;46.70;;;;;;5001376;28;20105;-48
2022/05/14 05:21:44;;;;;;;2.72;0.90;;;25.00;46.70;;;;;;5001492;28;20511;-48
2022/05/14 05:24:10;;;;;;;3.85;1.27;;;25.00;46.70;;;;;;5001976;28;20476;-48
2022/05/14 05:26:36;;;;;;;2.25;0.60;;;25.10;46.60;;;;;;5000023;28;20045;-49
2022/05/14 05:29:03;;;;;;;2.28;0.85;;;25.10;47.30;;;;;;5001473;28;20029;-48
2022/05/14 05:31:31;;;;;;;1.45;0.50;;;25.10;46.60;;;;;;5001745;28;20544;-47
2022/05/14 05:33:58;;;;;;;4.22;1.27;;;25.10;46.50;;;;;;5001074;28;20528;-50
2022/05/14 05:36:23;;;;;;;2.50;0.90;;;25.10;46.50;;;;;;5001149;28;20057;-51
2022/05/14 05:38:51;;;;;;;1.92;0.68;;;25.10;46.20;;;;;;5001146;28;20147;-50
2022/05/14 05:41:18;;;;;;;2.22;1.02;;;25.10;46.10;;;;;;5000636;28;20787;-49
2022/05/14 05:43:44;;;;;;;2.50;0.90;;;25.20;46.00;;;;;;5000604;28;20022;-51
2022/05/14 05:46:11;;;;;;;1.83;0.70;;;25.20;46.20;;;;;;4995902;28;20037;-50
2022/05/14 05:48:37;;;;;;;1.85;0.85;;;25.10;46.20;;;;;;5000268;28;20727;-51
2022/05/14 05:51:04;;;;;;;12.60;3.05;;;25.20;46.30;;;;;;5000782;28;20022;-50
2022/05/14 05:58:59;;;;;;;11.00;1.88;;;25.20;47.90;;;;;;4999863;28;20076;-49
2022/05/14 06:01:25;;;;;;;5.05;1.58;;;25.20;47.50;;;;;;5000415;28;20554;-51
2022/05/14 06:03:51;;;;;;;4.68;1.33;;;25.20;47.20;;;;;;4997029;28;20041;-50
2022/05/14 06:06:18;;;;;;;5.07;1.30;;;25.20;47.00;;;;;;5000076;28;20026;-52
2022/05/14 06:08:45;;;;;;;4.65;1.30;;;25.20;46.80;;;;;;4999959;28;20044;-51
2022/05/14 06:11:11;;;;;;;3.13;0.95;;;25.20;46.90;;;;;;5000454;28;20033;-50
2022/05/14 06:13:36;;;;;;;4.60;1.02;;;25.20;46.80;;;;;;5000065;28;20527;-50
2022/05/14 06:16:02;;;;;;;4.45;1.30;;;25.20;46.80;;;;;;5000378;28;20446;-51
2022/05/14 06:18:28;;;;;;;3.53;1.17;;;25.20;46.80;;;;;;5000180;28;20042;-51
2022/05/14 06:20:54;;;;;;;3.47;1.25;;;25.20;46.80;;;;;;5000969;28;20492;-49
2022/05/14 06:23:20;;;;;;;3.95;1.10;;;25.20;46.70;;;;;;5000373;28;20058;-49
2022/05/14 06:25:46;;;;;;;4.00;1.45;;;25.20;46.80;;;;;;5001098;28;20057;-50
2022/05/14 06:28:11;;;;;;;5.07;1.00;;;25.20;46.70;;;;;;4999896;28;20030;-50
2022/05/14 06:30:43;;;;;;;3.10;1.00;;;25.20;46.70;;;;;;5000935;28;20096;-51
2022/05/14 06:33:10;;;;;;;2.55;0.90;;;25.20;46.70;;;;;;5000405;28;20128;-50
2022/05/14 06:35:37;;;;;;;3.72;1.00;;;25.20;46.80;;;;;;5000455;28;20084;-49
2022/05/14 06:38:04;;;;;;;3.28;0.82;;;25.20;46.70;;;;;;5000666;28;20057;-50
2022/05/14 06:40:31;;;;;;;3.13;0.90;;;25.20;46.70;;;;;;5000681;28;20683;-52
2022/05/14 06:42:57;;;;;;;1.73;0.75;;;25.30;46.70;;;;;;5000102;28;20030;-49
2022/05/14 06:45:23;;;;;;;4.00;1.00;;;25.30;46.70;;;;;;4997469;28;20054;-49
2022/05/14 06:47:49;;;;;;;3.55;1.40;;;25.30;46.90;;;;;;4999979;28;20481;-48
2022/05/14 06:50:15;;;;;;;4.10;1.52;;;25.20;46.60;;;;;;4999642;28;20040;-49
2022/05/14 06:52:44;;;;;;;4.80;1.40;;;25.30;46.20;;;;;;5000415;28;20101;-49
2022/05/14 06:55:13;;;;;;;4.78;2.00;;;25.30;45.90;;;;;;5001306;28;20038;-47
2022/05/14 06:57:39;;;;;;;3.83;1.38;;;25.30;45.90;;;;;;5003551;28;20030;-48
2022/05/14 07:00:07;;;;;;;4.13;1.80;;;25.20;45.50;;;;;;5003680;28;20030;-48
2022/05/14 07:02:35;;;;;;;4.50;1.20;;;25.20;45.30;;;;;;5003591;28;20026;-47
2022/05/14 07:07:45;;;;;;;2.45;1.02;;;25.30;45.50;;;;;;5003287;28;20041;-47
2022/05/14 07:10:11;;;;;;;3.65;1.30;;;25.30;45.60;;;;;;5001212;28;20029;-48
2022/05/14 07:12:37;;;;;;;2.95;1.05;;;25.30;45.30;;;;;;5003742;28;20456;-49
2022/05/14 07:15:04;;;;;;;5.70;1.50;;;25.30;45.40;;;;;;5002540;28;20037;-49
2022/05/14 07:17:31;;;;;;;2.95;1.10;;;25.30;45.40;;;;;;5001230;28;20033;-49
2022/05/14 07:19:56;;;;;;;3.05;1.15;;;25.30;45.20;;;;;;5003150;28;20097;-49
2022/05/14 07:22:22;;;;;;;4.55;1.60;;;25.30;45.20;;;;;;5003070;28;20164;-48
2022/05/14 07:24:48;;;;;;;5.07;1.73;;;25.30;45.20;;;;;;5002044;28;20034;-48
2022/05/14 07:27:14;;;;;;;5.20;1.40;;;25.30;45.90;;;;;;5016513;28;20581;-47
2022/05/14 07:29:42;;;;;;;3.42;1.27;;;25.30;45.10;;;;;;5001434;28;20046;-47
2022/05/14 07:32:10;;;;;;;3.10;1.30;;;25.30;45.20;;;;;;5001054;28;20034;-48
2022/05/14 07:34:37;;;;;;;4.55;1.63;;;25.30;45.20;;;;;;5001366;28;20104;-47
2022/05/14 07:37:06;;;;;;;4.97;1.30;;;25.30;45.40;;;;;;5000086;28;20590;-48
2022/05/14 07:39:42;;;;;;;3.45;1.40;;;25.30;45.30;;;;;;5003041;28;20040;-48
2022/05/14 07:42:15;;;;;;;4.13;1.33;;;25.30;45.30;;;;;;5003659;28;20275;-48
2022/05/14 07:44:45;;;;;;;4.90;1.40;;;25.30;45.20;;;;;;5005732;28;20390;-48
2022/05/14 07:47:13;;;;;;;4.63;1.63;;;25.30;45.30;;;;;;5001597;28;20065;-48
2022/05/14 07:49:40;;;;;;;3.38;1.20;;;25.30;45.30;;;;;;5004970;28;20033;-48
2022/05/14 07:52:06;;;;;;;2.85;1.02;;;25.30;45.30;;;;;;5006710;28;20112;-48
2022/05/14 07:54:33;;;;;;;2.30;0.90;;;25.30;45.30;;;;;;5006585;28;20022;-48
2022/05/14 07:57:00;;;;;;;2.38;1.20;;;25.30;45.30;;;;;;5006160;28;20022;-48
2022/05/14 07:59:27;;;;;;;3.08;1.35;;;25.30;45.30;;;;;;5006236;28;20034;-47
2022/05/14 08:01:52;;;;;;;3.40;1.30;;;25.30;45.30;;;;;;5005492;28;20025;-48
2022/05/14 08:04:18;;;;;;;3.17;1.30;;;25.30;45.20;;;;;;5004343;28;20434;-47
2022/05/14 08:06:44;;;;;;;3.47;1.70;;;25.30;45.60;;;;;;5004762;28;20502;-46
2022/05/14 08:09:09;;;;;;;2.72;1.13;;;25.30;44.60;;;;;;5005516;28;20087;-46
2022/05/14 08:11:35;;;;;;;2.15;0.80;;;25.30;44.10;;;;;;5006099;28;20128;-46
2022/05/14 08:14:01;;;;;;;3.15;1.08;;;25.30;43.60;;;;;;5005303;28;20634;-46
2022/05/14 08:16:27;;;;;;;2.13;0.90;;;25.30;43.90;;;;;;4998120;28;20035;-45
2022/05/14 08:18:52;;;;;;;3.78;1.17;;;25.30;44.20;;;;;;5005852;28;20286;-45
2022/05/14 08:26:49;;;;;;;3.58;1.08;;;25.20;43.80;;;;;;5005710;28;20053;-47
2022/05/14 08:29:17;;;;;;;3.90;1.40;;;25.30;43.80;;;;;;5006208;28;20033;-46
2022/05/14 08:31:42;;;;;;;3.47;1.42;;;25.30;44.20;;;;;;5002014;28;20052;-46
2022/05/14 08:34:08;;;;;;;5.05;1.73;;;25.30;44.00;;;;;;5005497;28;20199;-46
2022/05/14 08:36:34;;;;;;;3.10;1.10;;;25.30;44.00;;;;;;5005113;28;20030;-46
2022/05/14 08:39:00;;;;;;;2.90;1.13;;;25.30;43.30;;;;;;5005213;28;20153;-46
2022/05/14 08:41:26;;;;;;;3.95;1.10;;;25.30;43.00;;;;;;5004920;28;20057;-47
2022/05/14 08:43:59;;;;;;;2.63;1.00;;;25.30;43.10;;;;;;5004154;28;20521;-46
2022/05/14 08:46:26;;;;;;;2.33;1.05;;;25.30;43.50;;;;;;5004572;28;20121;-48
2022/05/14 08:48:59;;;;;;;3.30;1.25;;;25.30;43.80;;;;;;5005685;28;20034;-47
2022/05/14 08:51:32;;;;;;;3.10;1.20;;;25.30;43.30;;;;;;5005574;28;20064;-46
2022/05/14 08:53:59;;;;;;;3.88;1.33;;;25.30;43.40;;;;;;5005643;28;20100;-47
2022/05/14 08:56:25;;;;;;;3.17;1.20;;;25.30;43.70;;;;;;5003935;28;20030;-48
2022/05/14 08:59:28;;;;;;;4.75;1.50;;;25.30;43.80;;;;;;5004634;28;20437;-47
2022/05/14 09:02:01;;;;;;;2.40;0.95;;;25.30;43.80;;;;;;5004399;28;20115;-47
2022/05/14 09:04:27;;;;;;;3.25;1.00;;;25.30;43.80;;;;;;5005048;28;20040;-48
2022/05/14 09:06:53;;;;;;;2.10;1.05;;;25.40;43.40;;;;;;5004232;28;20026;-49
2022/05/14 09:09:19;;;;;;;2.28;0.90;;;25.30;43.50;;;;;;5005290;28;20026;-49
2022/05/14 09:12:08;;;;;;;4.40;1.13;;;25.30;43.60;;;;;;5005601;28;20030;-51
2022/05/14 09:14:37;;;;;;;2.60;0.88;;;25.30;43.80;;;;;;4984826;28;20038;-50
2022/05/14 09:17:13;;;;;;;3.60;1.17;;;25.30;43.60;;;;;;4994218;28;20951;-51
2022/05/14 09:19:43;;;;;;;3.00;1.15;;;25.30;43.50;;;;;;5004380;28;20080;-49
2022/05/14 09:22:27;;;;;;;2.35;0.93;;;25.30;43.70;;;;;;5004725;28;20306;-50
2022/05/14 09:25:01;;;;;;;2.80;1.00;;;25.30;43.60;;;;;;5004668;28;20025;-49
2022/05/14 09:27:42;;;;;;;2.17;1.00;;;25.30;43.80;;;;;;5004223;28;20175;-50
2022/05/14 09:30:12;;;;;;;1.98;0.82;;;25.30;44.10;;;;;;5001778;28;20033;-51
2022/05/14 09:32:45;;;;;;;1.95;0.80;;;25.40;44.50;;;;;;5004205;28;20034;-51
2022/05/14 09:35:13;;;;;;;2.15;1.00;;;25.30;44.90;;;;;;5000517;28;20061;-51
2022/05/14 09:37:40;;;;;;;2.97;0.90;;;25.40;45.00;;;;;;4999275;28;20503;-52
2022/05/14 09:40:13;;;;;;;3.22;1.40;;;25.40;44.90;;;;;;4997020;28;20033;-51
2022/05/14 09:42:46;;;;;;;2.75;1.15;;;25.40;45.00;;;;;;4995576;28;20022;-52
2022/05/14 09:45:26;;;;;;;4.95;2.22;;;25.40;45.10;;;;;;5000380;28;20033;-51
2022/05/14 09:47:53;;;;;;;8.45;7.45;;;25.40;45.10;;;;;;4995737;28;20041;-52
2022/05/14 09:50:23;;;;;;;15.43;13.93;;;25.40;45.50;;;;;;4999524;28;20038;-51
2022/05/14 09:52:59;;;;;;;17.55;15.75;;;25.50;45.70;;;;;;5002420;28;20026;-51
2022/05/14 09:55:49;;;;;;;14.52;13.07;;;25.60;45.40;;;;;;5002076;28;20040;-51
2022/05/14 09:58:30;;;;;;;10.57;9.48;;;25.60;45.20;;;;;;5000278;28;20042;-52
2022/05/14 10:01:23;;;;;;;9.88;6.95;;;25.60;44.70;;;;;;4993986;28;20103;-48
2022/05/14 10:03:54;;;;;;;6.15;5.55;;;25.60;44.40;;;;;;5001158;28;20056;-50
2022/05/14 10:06:29;;;;;;;5.70;4.30;;;25.60;43.90;;;;;;4997660;28;20041;-49
2022/05/14 10:09:16;;;;;;;5.93;4.07;;;25.60;43.40;;;;;;4993772;28;20034;-49
2022/05/14 10:11:46;;;;;;;6.07;3.28;;;25.70;43.30;;;;;;4999486;28;20041;-50
2022/05/14 10:14:43;;;;;;;5.47;3.63;;;25.70;43.40;;;;;;5002615;28;20026;-49
2022/05/14 10:17:30;;;;;;;6.22;2.97;;;25.70;43.90;;;;;;4995759;28;20033;-49
2022/05/14 10:20:40;;;;;;;4.18;2.38;;;25.70;43.90;;;;;;5003308;28;20026;-49
2022/05/14 10:29:44;;;;;;;3.78;2.15;;;25.70;43.50;;;;;;5003703;28;20096;-49
2022/05/14 10:32:16;;;;;;;5.10;2.15;;;25.70;43.40;;;;;;5003839;28;20049;-50
2022/05/14 10:34:50;;;;;;;3.97;2.28;;;25.70;43.20;;;;;;5007652;28;20091;-51
2022/05/14 10:37:47;;;;;;;4.22;2.20;;;25.70;43.00;;;;;;5005919;28;20018;-50
2022/05/14 10:40:19;;;;;;;5.53;2.63;;;25.70;43.20;;;;;;5009665;28;20026;-49
2022/05/14 10:42:53;;;;;;;3.70;1.70;;;25.70;43.10;;;;;;5027395;28;20026;-49
2022/05/14 10:45:22;;;;;;;4.18;1.85;;;25.70;43.00;;;;;;5027220;28;20528;-48
2022/05/14 10:48:13;;;;;;;5.78;1.90;;;25.70;42.50;;;;;;5007348;28;20124;-50
2022/05/14 10:50:39;;;;;;;2.85;1.42;;;25.60;42.30;;;;;;4998139;28;20361;-51
2022/05/14 10:53:09;;;;;;;4.05;1.50;;;25.70;42.20;;;;;;5007892;28;20030;-52
2022/05/14 10:55:48;;;;;;;4.38;1.65;;;25.70;41.40;;;;;;4990127;28;20031;-50
2022/05/14 10:58:35;;;;;;;5.10;1.60;;;25.70;41.90;;;;;;4988020;28;20156;-48
2022/05/14 11:01:02;;;;;;;3.30;1.38;;;25.70;41.60;;;;;;5005028;28;20079;-49
2022/05/14 11:03:32;;;;;;;4.63;1.60;;;25.60;41.40;;;;;;5007606;28;20583;-47
2022/05/14 11:06:01;;;;;;;4.28;2.03;;;25.60;41.60;;;;;;5007037;28;20026;-49
2022/05/14 11:08:40;;;;;;;3.88;1.70;;;25.60;41.70;;;;;;5007639;28;20076;-48
2022/05/14 11:11:29;;;;;;;3.63;1.70;;;25.60;41.50;;;;;;5007240;28;20069;-49
2022/05/14 11:14:07;;;;;;;2.97;1.30;;;25.60;42.00;;;;;;5006391;28;20123;-49
2022/05/14 11:16:43;;;;;;;3.50;1.50;;;25.60;42.10;;;;;;5006781;28;20018;-48
2022/05/14 11:19:11;;;;;;;2.67;1.20;;;25.60;41.60;;;;;;5007151;28;20092;-51
2022/05/14 11:21:44;;;;;;;2.53;1.30;;;25.60;42.60;;;;;;5007272;28;20026;-48
2022/05/14 11:24:14;;;;;;;3.08;1.33;;;25.70;41.90;;;;;;5006792;28;20785;-48
2022/05/14 11:26:46;;;;;;;3.28;1.38;;;25.70;41.80;;;;;;5007062;28;20626;-50
2022/05/14 11:29:16;;;;;;;2.57;1.30;;;25.70;42.10;;;;;;5006814;28;20121;-50
2022/05/14 11:32:09;;;;;;;3.38;1.40;;;25.70;42.00;;;;;;5002813;28;20277;-49
2022/05/14 11:34:36;;;;;;;3.33;1.65;;;25.70;42.30;;;;;;4996042;28;20125;-50
2022/05/14 11:37:05;;;;;;;3.47;1.35;;;25.70;42.50;;;;;;5001933;28;20053;-49
2022/05/14 11:39:36;;;;;;;2.97;1.20;;;25.70;42.50;;;;;;4999544;28;20114;-49
2022/05/14 11:42:11;;;;;;;4.53;1.50;;;25.70;42.90;;;;;;5003564;28;20029;-50
2022/05/14 11:44:56;;;;;;;2.60;1.20;;;25.70;43.10;;;;;;5005367;28;20030;-50
2022/05/14 11:47:52;;;;;;;2.65;1.35;;;25.70;43.00;;;;;;5005547;28;20038;-49
2022/05/14 11:50:23;;;;;;;3.45;1.38;;;25.70;42.80;;;;;;4999940;28;20038;-50
2022/05/14 11:52:55;;;;;;;3.65;1.50;;;25.70;42.60;;;;;;5001676;28;20029;-47
2022/05/14 11:55:28;;;;;;;3.42;1.40;;;25.70;41.90;;;;;;5000808;28;20037;-47
2022/05/14 11:58:03;;;;;;;4.30;1.63;;;25.70;41.80;;;;;;4998911;28;20050;-46
2022/05/14 12:00:35;;;;;;;3.75;1.48;;;25.70;42.00;;;;;;5002261;28;20422;-47
2022/05/14 12:03:09;;;;;;;4.32;1.83;;;25.70;42.30;;;;;;5001149;28;20298;-47
2022/05/14 12:05:45;;;;;;;2.47;1.15;;;25.80;42.00;;;;;;4999187;28;20038;-47
2022/05/14 12:08:13;;;;;;;4.10;1.38;;;25.80;42.30;;;;;;5004585;28;20371;-47
2022/05/14 12:11:06;;;;;;;3.53;1.48;;;25.80;41.30;;;;;;5004506;28;20048;-47
2022/05/14 12:13:55;;;;;;;2.95;1.10;;;25.80;41.60;;;;;;5006098;28;20030;-47
2022/05/14 12:16:32;;;;;;;2.90;1.45;;;25.80;41.10;;;;;;5005448;28;20026;-47
2022/05/14 12:19:01;;;;;;;3.35;1.55;;;25.80;41.00;;;;;;4986539;28;20026;-48
2022/05/14 12:21:27;;;;;;;2.83;1.20;;;25.80;40.90;;;;;;5020173;28;20041;-48
2022/05/14 12:23:53;;;;;;;3.15;1.17;;;25.80;41.50;;;;;;5005091;28;20053;-48
2022/05/14 12:26:22;;;;;;;3.10;1.27;;;25.80;41.80;;;;;;5005884;28;20026;-47
2022/05/14 12:28:48;;;;;;;2.65;1.13;;;25.90;41.40;;;;;;5005933;28;20461;-47
2022/05/14 12:34:05;;;;;;;2.53;0.80;;;25.90;39.50;;;;;;5005730;28;20966;-47
2022/05/14 12:36:57;;;;;;;3.33;1.10;;;25.90;39.70;;;;;;5005559;28;20298;-47
2022/05/14 12:39:27;;;;;;;2.57;1.00;;;25.90;40.60;;;;;;5004539;28;20570;-48
2022/05/14 12:42:14;;;;;;;3.00;1.15;;;25.90;40.60;;;;;;5005173;28;20148;-49
2022/05/14 12:44:46;;;;;;;2.33;0.80;;;26.00;41.80;;;;;;5005357;28;20033;-48
2022/05/14 12:47:22;;;;;;;3.08;1.10;;;26.00;40.90;;;;;;5004602;28;20392;-49
2022/05/14 12:49:48;;;;;;;2.72;1.23;;;26.00;40.60;;;;;;5005482;28;20042;-48
2022/05/14 12:52:21;;;;;;;4.30;1.23;;;26.00;40.40;;;;;;5004680;28;20029;-49
2022/05/14 12:54:49;;;;;;;;;;;26.10;40.20;;;;;;5003060;28;20030;-48
2022/05/14 12:57:15;;;;;;;4.15;1.15;;;26.00;40.20;;;;;;5004495;28;19910;-49
2022/05/14 12:59:41;;;;;;;3.72;1.00;;;26.10;39.80;;;;;;5004580;28;20033;-48
2022/05/14 13:02:18;;;;;;;4.20;1.40;;;26.10;39.30;;;;;;5004567;28;20551;-51
2022/05/14 13:05:04;;;;;;;3.92;1.20;;;26.10;38.70;;;;;;5004396;28;20038;-47
2022/05/14 13:07:34;;;;;;;3.90;1.52;;;26.10;39.30;;;;;;4988125;28;20279;-47
2022/05/14 13:10:01;;;;;;;7.63;1.67;;;26.10;40.40;;;;;;5002731;28;20029;-48
2022/05/14 13:12:30;;;;;;;10.25;2.65;;;26.20;40.80;;;;;;5003908;28;20591;-48
2022/05/14 13:14:59;;;;;;;5.70;2.15;;;26.10;41.00;;;;;;5004233;28;20029;-48
2022/05/14 13:17:40;;;;;;;7.03;2.50;;;26.20;41.20;;;;;;5001930;28;20081;-49
2022/05/14 13:20:16;;;;;;;5.30;1.90;;;26.30;45.50;;;;;;5002968;28;20029;-48
2022/05/14 13:22:43;;;;;;;5.68;1.48;;;26.30;44.90;;;;;;5003814;28;20418;-52
2022/05/14 13:25:34;;;;;;;3.78;1.40;;;26.30;41.70;;;;;;5004109;28;20149;-48
2022/05/14 13:28:12;;;;;;;6.63;2.30;;;26.30;41.80;;;;;;5001096;28;20084;-49
2022/05/14 13:30:39;;;;;;;4.68;1.73;;;26.40;44.70;;;;;;5003083;28;20053;-50
2022/05/14 13:33:07;;;;;;;6.78;1.80;;;26.40;46.60;;;;;;5004532;28;20038;-48